Terminal Aerodrome Forecast
Issued by NWS

Home | Current Version | Previous Version | Text Only | Print | Product List | Glossary On
Versions: 1 2 3 4 5 6 7 8 9 10 11 12 13 14 15 16 17 18 19 20 21 22
000
FTUS42 KTBW 052300 CCA
TAFRSW
TAF COR
KRSW 052327Z 0600/0624 24005KT P6SM SCT035
     FM060400 VRB03KT P6SM BKN250
     FM060900 34006KT 4SM BR FEW001 SCT005 OVC015
     FM061400 02008KT P6SM FEW007 SCT015 OVC025
     FM061900 35009KT P6SM SCT025 OVC050=

USA.gov is the U.S. government's official web portal to all federal, state and local government web resources and services.